Forside
METAR-TAF:

METAR-TAF

Lufthavne :

Monticello, Kentucky, USA

Breddekreds: 36-51-19N, længdekreds: 084-51-22W, højde: 294 m

Aktuelle vejr

Denne rapport blev lavet for 31 minutter siden, kl. 20:56 UTC
Vind 4 kt fra nordøst
Temperatur 5°C
Fugtighed 81%
Tryk 1016 hPa
Sigt: 16.1 km
Overskyet i en højde af 2800 ft

METAR: KEKQ 262056Z AUTO 05004KT 10SM OVC028 05/02 A3001 RMK AO2 SLP164 6//// T00500017 56018 PNO $

Tid: 16:27 (21:27 UTC)


TAF: fraværende

Vejrobservationer og prognoser fra mere end 4000 lufthavne (METAR og TAF).

De gule og røde prikker repræsenterer de meteorologiske stationer.

Flyt musen over at se navnet på stationen.

Så klik over at se vejr observationer og prognoser.

At skifte det kort: Klik på de grønne knapper med et sort kors for at zoome ind; på den grønne knap med en bindestreg for at zoome ud; eller på de grønne pile for tilstødende kort.


METAR-TAF: